createdAt,value
2022-11-21T00:00:01.532Z,94895.72
2022-11-21T00:01:14.563Z,94901.50
2022-11-21T00:02:17.409Z,94901.09
2022-11-21T00:03:19.283Z,94900.72
2022-11-21T00:04:23.431Z,94901.50
2022-11-21T00:05:25.406Z,94901.56
2022-11-21T00:06:28.278Z,94898.84
2022-11-21T00:07:30.192Z,94903.47
2022-11-21T00:08:32.990Z,94893.06
2022-11-21T00:09:36.767Z,94894.22
2022-11-21T00:10:40.640Z,94901.59
2022-11-21T00:11:42.476Z,94910.84
2022-11-21T00:12:45.257Z,94908.16
2022-11-21T00:13:47.183Z,94911.63
2022-11-21T00:14:50.026Z,94911.63
2022-11-21T00:15:51.849Z,94910.03
2022-11-21T00:16:57.489Z,94912.34
2022-11-21T00:18:02.459Z,94910.00
2022-11-21T00:19:05.261Z,94918.91
2022-11-21T00:20:09.312Z,94913.47
2022-11-21T00:21:14.456Z,94912.72
2022-11-21T00:22:16.288Z,94916.19
2022-11-21T00:23:19.326Z,94910.75
2022-11-21T00:24:21.148Z,94903.03
2022-11-21T00:25:24.027Z,94901.84
2022-11-21T00:26:25.869Z,94904.56
2022-11-21T00:27:28.836Z,94910.00
2022-11-21T00:28:30.693Z,94904.56
2022-11-21T00:29:33.454Z,94906.09
2022-11-21T00:30:36.002Z,94906.09
2022-11-21T00:31:38.942Z,94906.09
2022-11-21T00:32:40.686Z,94905.31
2022-11-21T00:33:43.553Z,94912.31
2022-11-21T00:34:45.345Z,94904.94
2022-11-21T00:35:49.729Z,94898.31
2022-11-21T00:36:51.645Z,94902.22
2022-11-21T00:37:54.455Z,94909.16
2022-11-21T00:38:56.244Z,94908.41
2022-11-21T00:39:59.129Z,94907.28
2022-11-21T00:41:01.098Z,94910.00
2022-11-21T00:42:03.940Z,94905.75
2022-11-21T00:43:05.775Z,94905.75
2022-11-21T00:44:08.705Z,94899.91
2022-11-21T00:45:10.901Z,94893.72
2022-11-21T00:46:13.668Z,94902.22
2022-11-21T00:47:15.503Z,94892.88
2022-11-21T00:48:18.314Z,94897.16
2022-11-21T00:49:20.141Z,94895.59
2022-11-21T00:50:22.890Z,94893.69
2022-11-21T00:51:26.053Z,94889.00
2022-11-21T00:52:28.992Z,94892.09
2022-11-21T00:53:30.869Z,94893.25
2022-11-21T00:54:33.767Z,94892.09
2022-11-21T00:55:37.242Z,94897.88
2022-11-21T00:56:40.064Z,94892.84
2022-11-21T00:57:41.936Z,94890.97
2022-11-21T00:58:44.793Z,94889.78
2022-11-21T00:59:46.716Z,94897.91
2022-11-21T01:00:49.562Z,94889.81
2022-11-21T01:01:51.425Z,94904.53
2022-11-21T01:02:54.178Z,94894.06
2022-11-21T01:03:57.302Z,94896.03
2022-11-21T01:05:00.335Z,94896.03
2022-11-21T01:06:04.010Z,94900.25
2022-11-21T01:07:08.214Z,94899.09
2022-11-21T01:08:10.102Z,94894.44
2022-11-21T01:09:13.119Z,94894.44
2022-11-21T01:10:15.213Z,94889.00
2022-11-21T01:11:20.448Z,94894.44
2022-11-21T01:12:22.541Z,94883.59
2022-11-21T01:13:25.342Z,94894.44
2022-11-21T01:14:27.524Z,94890.53
2022-11-21T01:15:30.490Z,94896.72
2022-11-21T01:16:32.439Z,94893.25
2022-11-21T01:17:35.272Z,94895.19
2022-11-21T01:18:37.631Z,94891.72
2022-11-21T01:19:40.485Z,94897.16
2022-11-21T01:20:42.227Z,94892.13
2022-11-21T01:21:45.056Z,94895.59
2022-11-21T01:22:48.230Z,94891.75
2022-11-21T01:23:51.619Z,94889.88
2022-11-21T01:24:53.438Z,94896.81
2022-11-21T01:25:56.386Z,94886.41
2022-11-21T01:26:58.485Z,94888.69
2022-11-21T01:28:01.263Z,94884.81
2022-11-21T01:29:04.087Z,94887.53
2022-11-21T01:30:07.161Z,94890.66
2022-11-21T01:31:12.822Z,94882.50
2022-11-21T01:32:14.581Z,94885.97
2022-11-21T01:33:17.378Z,94881.34
2022-11-21T01:34:19.294Z,94882.50
2022-11-21T01:35:22.154Z,94880.97
2022-11-21T01:36:25.914Z,94880.97
2022-11-21T01:37:28.822Z,94897.63
2022-11-21T01:38:33.099Z,94887.94
2022-11-21T01:39:35.934Z,94883.69
2022-11-21T01:40:38.608Z,94893.00
2022-11-21T01:41:43.192Z,94887.56
2022-11-21T01:42:58.432Z,94878.28
2022-11-21T01:44:01.400Z,94877.91
2022-11-21T01:45:03.487Z,94880.63
2022-11-21T01:46:13.226Z,94876.72
2022-11-21T01:47:15.035Z,94874.00
2022-11-21T01:48:17.955Z,94869.34
2022-11-21T01:49:24.319Z,94870.91
2022-11-21T01:50:26.164Z,94862.00
2022-11-21T01:51:33.965Z,94864.69
2022-11-21T01:52:35.878Z,94860.81
2022-11-21T01:53:41.589Z,94857.31
2022-11-21T01:54:47.956Z,94864.69
2022-11-21T01:55:50.141Z,94858.91
2022-11-21T01:57:01.273Z,94856.97
2022-11-21T01:58:03.398Z,94855.00
2022-11-21T01:59:09.203Z,94852.66
2022-11-21T02:00:21.479Z,94853.41
2022-11-21T02:01:25.074Z,94851.06
2022-11-21T02:02:30.921Z,94847.19
2022-11-21T02:03:37.518Z,94833.19
2022-11-21T02:04:42.011Z,94837.88
2022-11-21T02:05:44.822Z,94844.06
2022-11-21T02:06:47.133Z,94839.81
2022-11-21T02:07:51.732Z,94835.91
2022-11-21T02:08:55.343Z,94838.63
2022-11-21T02:10:01.975Z,94840.56
2022-11-21T02:11:14.249Z,94843.28
2022-11-21T02:12:22.394Z,94838.69
2022-11-21T02:13:25.145Z,94844.13
2022-11-21T02:14:29.318Z,94832.50
2022-11-21T02:15:31.391Z,94835.22
2022-11-21T02:16:35.072Z,94838.69
2022-11-21T02:17:37.011Z,94837.94
2022-11-21T02:18:40.894Z,94832.50
2022-11-21T02:19:50.119Z,94828.59
2022-11-21T02:20:59.016Z,94826.28
2022-11-21T02:22:05.970Z,94832.50
2022-11-21T02:23:16.912Z,94832.50
2022-11-21T02:24:29.860Z,94840.66
2022-11-21T02:25:35.994Z,94827.84
2022-11-21T02:26:39.271Z,94830.97
2022-11-21T02:27:41.496Z,94828.25
2022-11-21T02:28:45.373Z,94833.69
2022-11-21T02:29:47.389Z,94832.50
2022-11-21T02:30:50.540Z,94832.50
2022-11-21T02:31:53.713Z,94822.41
2022-11-21T02:32:55.646Z,94823.19
2022-11-21T02:33:58.421Z,94823.94
2022-11-21T02:35:00.464Z,94825.50
2022-11-21T02:36:04.129Z,94830.50
2022-11-21T02:37:05.932Z,94812.69
2022-11-21T02:38:17.914Z,94827.09
2022-11-21T02:39:23.675Z,94817.00
2022-11-21T02:40:30.184Z,94820.88
2022-11-21T02:41:37.641Z,94813.16
2022-11-21T02:42:47.850Z,94808.53
2022-11-21T02:43:59.483Z,94820.19
2022-11-21T02:45:10.326Z,94820.94
2022-11-21T02:46:12.094Z,94819.38
2022-11-21T02:47:14.896Z,94817.47
2022-11-21T02:48:17.865Z,94815.50
2022-11-21T02:49:29.677Z,94815.09
2022-11-21T02:50:34.216Z,94818.59
2022-11-21T02:51:36.173Z,94803.84
2022-11-21T02:52:39.012Z,94808.91
2022-11-21T02:53:40.926Z,94816.28
2022-11-21T02:54:43.805Z,94804.66
2022-11-21T02:55:46.664Z,94804.66
2022-11-21T02:56:50.873Z,94801.94
2022-11-21T02:57:53.251Z,94804.66
2022-11-21T02:58:56.087Z,94801.94
2022-11-21T02:59:57.866Z,94804.66
2022-11-21T03:01:00.767Z,94800.75
2022-11-21T03:02:02.820Z,94801.53
2022-11-21T03:03:06.030Z,94807.75
2022-11-21T03:04:07.815Z,94800.75
2022-11-21T03:05:12.647Z,94791.09
2022-11-21T03:06:14.448Z,94789.91
2022-11-21T03:07:17.247Z,94788.75
2022-11-21T03:08:19.078Z,94794.19
2022-11-21T03:09:22.001Z,94784.84
2022-11-21T03:10:23.816Z,94780.59
2022-11-21T03:11:26.727Z,94775.94
2022-11-21T03:12:30.038Z,94779.06
2022-11-21T03:13:32.762Z,94772.88
2022-11-21T03:14:34.576Z,94778.69
2022-11-21T03:15:37.562Z,94771.34
2022-11-21T03:16:39.434Z,94766.69
2022-11-21T03:17:42.683Z,94772.13
2022-11-21T03:18:44.493Z,94766.69
2022-11-21T03:19:47.246Z,94766.69
2022-11-21T03:20:49.050Z,94766.69
2022-11-21T03:21:51.890Z,94766.25
2022-11-21T03:22:53.754Z,94765.09
2022-11-21T03:23:56.628Z,94765.84
2022-11-21T03:24:58.475Z,94764.69
2022-11-21T03:26:01.249Z,94766.63
2022-11-21T03:27:03.136Z,94767.41
2022-11-21T03:28:07.333Z,94760.44
2022-11-21T03:29:09.517Z,94757.72
2022-11-21T03:30:13.366Z,94755.00
2022-11-21T03:31:15.140Z,94758.91
2022-11-21T03:32:17.978Z,94757.34
2022-11-21T03:33:19.819Z,94749.66
2022-11-21T03:34:22.719Z,94759.72
2022-11-21T03:35:25.320Z,94752.38
2022-11-21T03:36:28.159Z,94755.09
2022-11-21T03:37:30.065Z,94757.44
2022-11-21T03:38:32.862Z,94747.75
2022-11-21T03:39:34.996Z,94745.03
2022-11-21T03:40:37.819Z,94756.66
2022-11-21T03:41:39.831Z,94750.47
2022-11-21T03:42:42.823Z,94750.47
2022-11-21T03:43:45.984Z,94750.91
2022-11-21T03:44:48.797Z,94746.22
2022-11-21T03:45:50.695Z,94742.75
2022-11-21T03:46:53.477Z,94739.63
2022-11-21T03:47:55.326Z,94743.09
2022-11-21T03:48:58.173Z,94744.28
2022-11-21T03:50:00.032Z,94737.66
2022-11-21T03:51:02.855Z,94734.94
2022-11-21T03:52:04.792Z,94740.38
2022-11-21T03:53:07.673Z,94740.38
2022-11-21T03:54:09.876Z,94745.03
2022-11-21T03:55:12.895Z,94751.22
2022-11-21T03:56:15.018Z,94745.03
2022-11-21T03:57:17.833Z,94749.69
2022-11-21T03:58:19.613Z,94747.34
2022-11-21T03:59:23.711Z,94749.31
2022-11-21T04:00:25.549Z,94753.53
2022-11-21T04:01:33.759Z,94752.78
2022-11-21T04:02:38.135Z,94752.00
2022-11-21T04:03:41.819Z,94749.31
2022-11-21T04:04:43.667Z,94750.06
2022-11-21T04:05:46.434Z,94752.78
2022-11-21T04:06:48.187Z,94750.06
2022-11-21T04:07:50.982Z,94751.56
2022-11-21T04:08:52.949Z,94763.97
2022-11-21T04:09:55.870Z,94746.59
2022-11-21T04:10:57.638Z,94746.59
2022-11-21T04:12:05.003Z,94745.78
2022-11-21T04:13:09.287Z,94743.88
2022-11-21T04:14:12.130Z,94741.91
2022-11-21T04:15:15.398Z,94737.25
2022-11-21T04:16:18.371Z,94734.13
2022-11-21T04:17:20.284Z,94750.41
2022-11-21T04:18:23.318Z,94743.78
2022-11-21T04:19:25.117Z,94752.69
2022-11-21T04:20:28.006Z,94737.22
2022-11-21T04:21:29.806Z,94745.00
2022-11-21T04:22:32.550Z,94748.09
2022-11-21T04:23:34.388Z,94745.78
2022-11-21T04:24:37.204Z,94753.19
2022-11-21T04:25:39.048Z,94755.13
2022-11-21T04:26:41.826Z,94755.13
2022-11-21T04:27:43.752Z,94755.13
2022-11-21T04:28:46.613Z,94748.19
2022-11-21T04:29:48.552Z,94755.53
2022-11-21T04:30:55.064Z,94755.97
2022-11-21T04:31:57.302Z,94753.25
2022-11-21T04:33:00.235Z,94752.06
2022-11-21T04:34:02.430Z,94755.97
2022-11-21T04:35:05.850Z,94759.84
2022-11-21T04:36:08.624Z,94751.69
2022-11-21T04:37:12.008Z,94746.63
2022-11-21T04:38:14.513Z,94737.34
2022-11-21T04:39:17.365Z,94737.75
2022-11-21T04:40:19.461Z,94743.91
2022-11-21T04:41:22.259Z,94738.13
2022-11-21T04:42:24.721Z,94740.09
2022-11-21T04:43:27.519Z,94746.28
2022-11-21T04:44:29.725Z,94728.47
2022-11-21T04:45:33.245Z,94732.72
2022-11-21T04:46:36.380Z,94733.47
2022-11-21T04:47:40.402Z,94726.13
2022-11-21T04:48:43.337Z,94731.56
2022-11-21T04:49:45.203Z,94718.00
2022-11-21T04:50:48.040Z,94715.28
2022-11-21T04:51:49.874Z,94707.13
2022-11-21T04:52:53.676Z,94708.66
2022-11-21T04:53:55.636Z,94702.06
2022-11-21T04:54:58.595Z,94705.53
2022-11-21T04:56:04.107Z,94700.13
2022-11-21T04:57:06.914Z,94696.97
2022-11-21T04:58:08.775Z,94702.41
2022-11-21T04:59:12.862Z,94703.19
2022-11-21T05:00:20.974Z,94701.59
2022-11-21T05:01:27.085Z,94702.41
2022-11-21T05:02:30.389Z,94700.47
2022-11-21T05:03:33.238Z,94697.75
2022-11-21T05:04:35.035Z,94700.03
2022-11-21T05:05:38.440Z,94698.53
2022-11-21T05:06:40.294Z,94698.53
2022-11-21T05:07:43.220Z,94704.72
2022-11-21T05:08:50.414Z,94701.63
2022-11-21T05:09:54.976Z,94696.97
2022-11-21T05:11:15.203Z,94693.84
2022-11-21T05:12:46.929Z,94699.28
2022-11-21T05:13:48.875Z,94694.63
2022-11-21T05:14:51.925Z,94701.59
2022-11-21T05:15:57.109Z,94697.31
2022-11-21T05:16:59.913Z,94703.09
2022-11-21T05:18:03.101Z,94696.94
2022-11-21T05:19:05.942Z,94700.75
2022-11-21T05:20:09.248Z,94702.72
2022-11-21T05:21:12.051Z,94700.00
2022-11-21T05:22:14.025Z,94701.50
2022-11-21T05:23:16.911Z,94700.75
2022-11-21T05:24:18.825Z,94706.19
2022-11-21T05:25:21.732Z,94695.31
2022-11-21T05:26:23.554Z,94698.03
2022-11-21T05:27:26.373Z,94706.19
2022-11-21T05:28:28.372Z,94695.31
2022-11-21T05:29:31.413Z,94704.66
2022-11-21T05:30:33.442Z,94701.94
2022-11-21T05:31:36.295Z,94700.00
2022-11-21T05:32:38.156Z,94701.94
2022-11-21T05:33:42.371Z,94699.22
2022-11-21T05:34:44.166Z,94708.13
2022-11-21T05:35:47.304Z,94701.94
2022-11-21T05:36:49.694Z,94708.88
2022-11-21T05:37:57.010Z,94706.19
2022-11-21T05:38:58.818Z,94700.34
2022-11-21T05:40:01.599Z,94708.47
2022-11-21T05:41:03.486Z,94705.00
2022-11-21T05:42:06.377Z,94704.66
2022-11-21T05:43:30.332Z,94707.38
2022-11-21T05:44:32.172Z,94705.47
2022-11-21T05:45:33.971Z,94710.88
2022-11-21T05:46:36.840Z,94705.47
2022-11-21T05:47:41.070Z,94701.59
2022-11-21T05:48:46.091Z,94701.59
2022-11-21T05:49:48.209Z,94709.28
2022-11-21T05:50:51.335Z,94708.53
2022-11-21T05:51:53.116Z,94698.88
2022-11-21T05:52:55.884Z,94712.44
2022-11-21T05:53:58.683Z,94707.00
2022-11-21T05:55:00.564Z,94698.88
2022-11-21T05:56:05.417Z,94703.53
2022-11-21T05:57:07.266Z,94710.75
2022-11-21T05:58:10.872Z,94705.34
2022-11-21T05:59:12.820Z,94708.06
2022-11-21T06:00:16.885Z,94712.31
2022-11-21T06:01:39.169Z,94716.19
2022-11-21T06:03:00.759Z,94708.47
2022-11-21T06:04:05.252Z,94720.94
2022-11-21T06:05:07.764Z,94712.44
2022-11-21T06:06:12.860Z,94715.56
2022-11-21T06:07:14.678Z,94720.22
2022-11-21T06:08:17.605Z,94715.56
2022-11-21T06:09:20.617Z,94717.09
2022-11-21T06:10:22.475Z,94715.56
2022-11-21T06:11:25.454Z,94722.56
2022-11-21T06:12:27.329Z,94717.16
2022-11-21T06:13:30.572Z,94710.97
2022-11-21T06:14:32.337Z,94719.50
2022-11-21T06:15:35.117Z,94709.84
2022-11-21T06:16:38.012Z,94721.47
2022-11-21T06:17:39.969Z,94714.09
2022-11-21T06:18:44.703Z,94710.22
2022-11-21T06:19:47.799Z,94711.38
2022-11-21T06:20:51.119Z,94719.50
2022-11-21T06:21:54.056Z,94716.78
2022-11-21T06:22:55.850Z,94709.41
2022-11-21T06:23:59.650Z,94705.94
2022-11-21T06:25:01.522Z,94711.00
2022-11-21T06:26:06.693Z,94717.63
2022-11-21T06:27:08.580Z,94716.88
2022-11-21T06:28:11.980Z,94706.03
2022-11-21T06:29:13.972Z,94717.28
2022-11-21T06:30:21.975Z,94714.16
2022-11-21T06:31:27.984Z,94714.16
2022-11-21T06:32:30.024Z,94714.97
2022-11-21T06:33:33.000Z,94712.69
2022-11-21T06:34:35.867Z,94719.63
2022-11-21T06:35:39.835Z,94719.22
2022-11-21T06:36:44.651Z,94720.00
2022-11-21T06:37:50.764Z,94722.69
2022-11-21T06:38:57.706Z,94725.41
2022-11-21T06:39:59.822Z,94729.66
2022-11-21T06:41:05.576Z,94718.03
2022-11-21T06:42:17.412Z,94724.22
2022-11-21T06:43:20.280Z,94720.75
2022-11-21T06:44:23.203Z,94730.44
2022-11-21T06:45:25.104Z,94734.66
2022-11-21T06:46:27.916Z,94729.66
2022-11-21T06:47:33.619Z,94729.25
2022-11-21T06:48:37.620Z,94736.63
2022-11-21T06:49:39.495Z,94737.38
2022-11-21T06:50:43.619Z,94738.13
2022-11-21T06:51:45.469Z,94731.19
2022-11-21T06:52:48.449Z,94740.09
2022-11-21T06:53:55.760Z,94738.91
2022-11-21T06:54:58.595Z,94744.31
2022-11-21T06:56:01.033Z,94738.91
2022-11-21T06:57:03.880Z,94736.19
2022-11-21T06:58:05.731Z,94739.69
2022-11-21T06:59:08.660Z,94746.63
2022-11-21T07:00:11.644Z,94742.41
2022-11-21T07:01:14.518Z,94733.47
2022-11-21T07:02:16.450Z,94746.28
2022-11-21T07:03:19.400Z,94742.03
2022-11-21T07:04:21.415Z,94748.22
2022-11-21T07:05:24.292Z,94747.47
2022-11-21T07:06:28.561Z,94742.81
2022-11-21T07:07:30.436Z,94759.84
2022-11-21T07:08:35.362Z,94749.00
2022-11-21T07:09:38.411Z,94749.75
2022-11-21T07:10:57.335Z,94759.44
2022-11-21T07:12:18.627Z,94764.09
2022-11-21T07:13:24.849Z,94756.72
2022-11-21T07:14:26.756Z,94757.47
2022-11-21T07:15:29.604Z,94753.25
2022-11-21T07:16:32.468Z,94753.25
2022-11-21T07:17:34.318Z,94755.16
2022-11-21T07:18:38.033Z,94757.47
2022-11-21T07:19:41.128Z,94766.75
2022-11-21T07:20:44.415Z,94760.56
2022-11-21T07:21:47.534Z,94763.25
2022-11-21T07:22:50.318Z,94770.22
2022-11-21T07:23:52.114Z,94765.97
2022-11-21T07:24:54.961Z,94774.88
2022-11-21T07:26:01.140Z,94776.06
2022-11-21T07:27:03.046Z,94771.41
2022-11-21T07:28:05.904Z,94776.81
2022-11-21T07:29:08.723Z,94774.13
2022-11-21T07:30:11.383Z,94775.63
2022-11-21T07:31:14.543Z,94773.34
2022-11-21T07:32:16.468Z,94779.53
2022-11-21T07:33:19.428Z,94783.00
2022-11-21T07:34:21.259Z,94778.03
2022-11-21T07:35:24.180Z,94779.19
2022-11-21T07:36:26.141Z,94777.66
2022-11-21T07:37:30.396Z,94774.59
2022-11-21T07:38:32.227Z,94773.03
2022-11-21T07:39:35.068Z,94776.94
2022-11-21T07:40:38.257Z,94778.47
2022-11-21T07:41:41.138Z,94783.88
2022-11-21T07:42:43.260Z,94779.25
2022-11-21T07:43:46.182Z,94781.53
2022-11-21T07:44:48.016Z,94776.47
2022-11-21T07:45:50.812Z,94784.19
2022-11-21T07:46:54.900Z,94781.84
2022-11-21T07:48:01.614Z,94782.22
2022-11-21T07:49:04.513Z,94776.34
2022-11-21T07:50:07.897Z,94784.84
2022-11-21T07:51:11.130Z,94781.72
2022-11-21T07:52:12.903Z,94786.72
2022-11-21T07:53:17.100Z,94783.59
2022-11-21T07:54:19.225Z,94789.03
2022-11-21T07:55:22.065Z,94794.06
2022-11-21T07:56:26.603Z,94785.91
2022-11-21T07:57:29.204Z,94784.38
2022-11-21T07:58:32.283Z,94790.97
2022-11-21T07:59:34.302Z,94781.28
2022-11-21T08:00:38.850Z,94789.44
2022-11-21T08:01:45.261Z,94792.97
2022-11-21T08:02:48.548Z,94798.41
2022-11-21T08:03:50.328Z,94802.31
2022-11-21T08:04:53.444Z,94793.81
2022-11-21T08:05:56.307Z,94786.09
2022-11-21T08:06:58.266Z,94789.56
2022-11-21T08:08:01.230Z,94797.69
2022-11-21T08:09:05.482Z,94783.78
2022-11-21T08:10:07.879Z,94785.31
2022-11-21T08:11:10.900Z,94794.97
2022-11-21T08:12:18.002Z,94783.78
2022-11-21T08:13:19.961Z,94793.09
2022-11-21T08:14:22.913Z,94785.38
2022-11-21T08:15:24.825Z,94788.88
2022-11-21T08:16:30.617Z,94787.69
2022-11-21T08:17:33.039Z,94794.63
2022-11-21T08:18:36.156Z,94801.25
2022-11-21T08:19:38.065Z,94794.63
2022-11-21T08:20:41.642Z,94793.47
2022-11-21T08:21:44.555Z,94794.97
2022-11-21T08:22:46.604Z,94796.94
2022-11-21T08:23:50.074Z,94803.91
2022-11-21T08:24:54.272Z,94796.94
2022-11-21T08:25:57.111Z,94797.69
2022-11-21T08:27:01.453Z,94806.19
2022-11-21T08:28:04.165Z,94809.34
2022-11-21T08:29:07.157Z,94800.75
2022-11-21T08:30:12.199Z,94808.91
2022-11-21T08:31:14.237Z,94804.66
2022-11-21T08:32:17.190Z,94803.91
2022-11-21T08:33:19.129Z,94795.78
2022-11-21T08:34:22.063Z,94793.06
2022-11-21T08:35:23.914Z,94801.94
2022-11-21T08:36:26.730Z,94804.66
2022-11-21T08:37:30.194Z,94797.69
2022-11-21T08:38:33.213Z,94798.47
2022-11-21T08:39:35.171Z,94793.47
2022-11-21T08:40:39.538Z,94807.03
2022-11-21T08:42:00.251Z,94800.03
2022-11-21T08:43:05.025Z,94801.25
2022-11-21T08:44:12.696Z,94791.59
2022-11-21T08:45:17.006Z,94795.47
2022-11-21T08:46:19.043Z,94790.03
2022-11-21T08:47:22.167Z,94790.03
2022-11-21T08:48:25.022Z,94796.22
2022-11-21T08:49:27.435Z,94793.94
2022-11-21T08:50:30.359Z,94798.16
2022-11-21T08:51:32.625Z,94796.66
2022-11-21T08:52:35.418Z,94793.94
2022-11-21T08:53:37.234Z,94791.97
2022-11-21T08:54:40.031Z,94784.59
2022-11-21T08:55:43.217Z,94786.91
2022-11-21T08:56:46.437Z,94790.38
2022-11-21T08:57:48.266Z,94782.25
2022-11-21T08:58:51.226Z,94793.09
2022-11-21T08:59:53.101Z,94789.19
2022-11-21T09:00:55.928Z,94786.47
2022-11-21T09:01:58.997Z,94796.16
2022-11-21T09:03:05.417Z,94797.69
2022-11-21T09:04:08.779Z,94783.72
2022-11-21T09:05:11.614Z,94785.25
2022-11-21T09:06:14.507Z,94786.03
2022-11-21T09:07:17.575Z,94791.03
2022-11-21T09:08:21.012Z,94782.91
2022-11-21T09:09:25.524Z,94776.31
2022-11-21T09:10:29.069Z,94779.78
2022-11-21T09:11:32.455Z,94784.00
2022-11-21T09:12:35.365Z,94788.28
2022-11-21T09:13:37.461Z,94785.16
2022-11-21T09:14:54.179Z,94780.50
2022-11-21T09:16:20.456Z,94790.50
2022-11-21T09:17:41.491Z,94787.38
2022-11-21T09:18:44.488Z,94784.25
2022-11-21T09:19:47.349Z,94795.09
2022-11-21T09:20:50.235Z,94796.66
2022-11-21T09:21:52.698Z,94798.16
2022-11-21T09:22:55.574Z,94794.28
2022-11-21T09:23:57.424Z,94786.16
2022-11-21T09:25:00.336Z,94783.44
2022-11-21T09:26:03.201Z,94791.16
2022-11-21T09:27:06.431Z,94786.50
2022-11-21T09:28:11.204Z,94789.97
2022-11-21T09:29:16.297Z,94788.03
2022-11-21T09:30:19.498Z,94798.03
2022-11-21T09:31:22.426Z,94787.19
2022-11-21T09:32:25.424Z,94785.66
2022-11-21T09:33:28.357Z,94777.88
2022-11-21T09:34:31.800Z,94779.06
2022-11-21T09:35:35.126Z,94788.75
2022-11-21T09:36:38.245Z,94784.84
2022-11-21T09:37:41.301Z,94777.88
2022-11-21T09:38:44.157Z,94772.81
2022-11-21T09:39:47.185Z,94782.47
2022-11-21T09:40:50.398Z,94786.75
2022-11-21T09:42:01.502Z,94778.59
2022-11-21T09:43:19.683Z,94781.72
2022-11-21T09:44:56.543Z,94773.97
2022-11-21T09:46:04.281Z,94773.22
2022-11-21T09:47:22.734Z,94773.22
2022-11-21T09:48:31.449Z,94773.97
2022-11-21T09:49:43.136Z,94779.41
2022-11-21T09:50:53.815Z,94779.41
2022-11-21T09:51:58.749Z,94778.66
2022-11-21T09:53:07.745Z,94772.47
2022-11-21T09:54:18.767Z,94772.09
2022-11-21T09:55:28.912Z,94769.38
2022-11-21T09:56:34.499Z,94775.56
2022-11-21T09:57:36.760Z,94778.72
2022-11-21T09:58:44.590Z,94771.00
2022-11-21T09:59:48.038Z,94774.47
2022-11-21T10:00:52.539Z,94771.34
2022-11-21T10:01:55.450Z,94770.91
2022-11-21T10:02:59.032Z,94770.91
2022-11-21T10:04:04.371Z,94768.56
2022-11-21T10:05:14.501Z,94762.38
2022-11-21T10:06:21.015Z,94763.91
2022-11-21T10:07:28.150Z,94768.91
2022-11-21T10:08:39.252Z,94760.75
2022-11-21T10:10:05.019Z,94769.25
2022-11-21T10:11:20.208Z,94763.84
2022-11-21T10:12:38.595Z,94758.41
2022-11-21T10:13:55.585Z,94758.41
2022-11-21T10:15:07.667Z,94768.84
2022-11-21T10:16:20.366Z,94757.25
2022-11-21T10:17:32.725Z,94758.00
2022-11-21T10:19:11.294Z,94763.00
2022-11-21T10:20:29.206Z,94750.97
2022-11-21T10:21:57.490Z,94751.34
2022-11-21T10:23:12.963Z,94738.53
2022-11-21T10:24:32.441Z,94735.44
2022-11-21T10:25:38.110Z,94731.50
2022-11-21T10:26:46.081Z,94731.88
2022-11-21T10:27:54.848Z,94734.19
2022-11-21T10:29:03.156Z,94729.50
2022-11-21T10:30:14.700Z,94727.91
2022-11-21T10:31:19.320Z,94713.13
2022-11-21T10:32:24.802Z,94717.00
2022-11-21T10:33:32.619Z,94718.50
2022-11-21T10:34:38.931Z,94713.44
2022-11-21T10:35:46.887Z,94712.25
2022-11-21T10:36:53.483Z,94708.34
2022-11-21T10:38:00.833Z,94714.53
2022-11-21T10:39:11.412Z,94712.59
2022-11-21T10:40:24.937Z,94708.69
2022-11-21T10:41:40.097Z,94716.06
2022-11-21T10:42:53.496Z,94719.56
2022-11-21T10:44:22.859Z,94718.78
2022-11-21T10:45:25.227Z,94711.41
2022-11-21T10:46:28.296Z,94712.19
2022-11-21T10:47:34.678Z,94712.94
2022-11-21T10:48:37.594Z,94707.50
2022-11-21T10:49:41.484Z,94711.78
2022-11-21T10:51:03.357Z,94712.94
2022-11-21T10:52:10.671Z,94706.34
2022-11-21T10:53:36.135Z,94707.09
2022-11-21T10:55:05.033Z,94703.63
2022-11-21T10:56:10.590Z,94693.53
2022-11-21T10:57:16.118Z,94699.72
2022-11-21T10:58:20.233Z,94698.50
2022-11-21T10:59:30.840Z,94703.94
2022-11-21T11:00:34.303Z,94691.16
2022-11-21T11:01:36.320Z,94698.88
2022-11-21T11:02:40.287Z,94684.13
2022-11-21T11:03:48.325Z,94677.50
2022-11-21T11:05:20.431Z,94681.75
2022-11-21T11:06:29.738Z,94677.50
2022-11-21T11:07:32.675Z,94670.91
2022-11-21T11:08:51.559Z,94679.81
2022-11-21T11:10:14.596Z,94667.84
2022-11-21T11:11:22.116Z,94670.97
2022-11-21T11:12:51.864Z,94667.47
2022-11-21T11:13:57.997Z,94670.97
2022-11-21T11:15:02.323Z,94662.06
2022-11-21T11:16:07.299Z,94663.56
2022-11-21T11:17:15.306Z,94667.84
2022-11-21T11:18:22.200Z,94670.53
2022-11-21T11:19:35.361Z,94660.84
2022-11-21T11:20:39.941Z,94660.84
2022-11-21T11:21:45.348Z,94662.41
2022-11-21T11:22:48.076Z,94656.97
2022-11-21T11:23:52.569Z,94666.28
2022-11-21T11:25:00.185Z,94659.34
2022-11-21T11:26:03.685Z,94653.91
2022-11-21T11:27:06.508Z,94662.47
2022-11-21T11:28:09.164Z,94660.19
2022-11-21T11:29:16.204Z,94658.63
2022-11-21T11:30:21.352Z,94647.03
2022-11-21T11:31:23.286Z,94651.69
2022-11-21T11:32:26.677Z,94648.19
2022-11-21T11:33:36.169Z,94642.00
2022-11-21T11:34:41.513Z,94646.25
2022-11-21T11:35:43.909Z,94647.78
2022-11-21T11:37:03.997Z,94635.41
2022-11-21T11:38:11.966Z,94643.53
2022-11-21T11:39:20.582Z,94633.84
2022-11-21T11:40:31.146Z,94637.75
2022-11-21T11:42:25.992Z,94639.28
2022-11-21T11:43:54.629Z,94627.66
2022-11-21T11:45:33.529Z,94633.84
2022-11-21T11:47:13.114Z,94629.97
2022-11-21T11:48:19.714Z,94631.47
2022-11-21T11:49:32.009Z,94627.59
2022-11-21T11:50:39.035Z,94633.78
2022-11-21T11:51:46.997Z,94629.88
2022-11-21T11:52:58.616Z,94621.31
2022-11-21T11:54:09.447Z,94630.97
2022-11-21T11:55:20.041Z,94622.84
2022-11-21T11:56:26.024Z,94630.97
2022-11-21T11:57:31.591Z,94630.56
2022-11-21T11:58:41.380Z,94625.91
2022-11-21T11:59:49.878Z,94618.09
2022-11-21T12:01:01.568Z,94618.88
2022-11-21T12:02:14.184Z,94621.56
2022-11-21T12:03:21.249Z,94623.13
2022-11-21T12:04:25.118Z,94623.13
2022-11-21T12:05:31.078Z,94620.41
2022-11-21T12:07:26.188Z,94620.41
2022-11-21T12:09:44.233Z,94608.78
2022-11-21T12:11:09.929Z,94611.06
2022-11-21T12:12:20.053Z,94605.22
2022-11-21T12:13:22.119Z,94603.69
2022-11-21T12:15:11.659Z,94598.59
2022-11-21T12:16:15.423Z,94593.16
2022-11-21T12:17:24.832Z,94594.69
2022-11-21T12:18:34.904Z,94593.50
2022-11-21T12:19:38.202Z,94586.91
2022-11-21T12:20:53.195Z,94584.19
2022-11-21T12:21:55.073Z,94580.69
2022-11-21T12:22:58.516Z,94567.91
2022-11-21T12:24:03.869Z,94571.78
2022-11-21T12:25:12.255Z,94563.97
2022-11-21T12:26:30.692Z,94557.38
2022-11-21T12:27:34.774Z,94562.03
2022-11-21T12:28:47.001Z,94553.88
2022-11-21T12:30:10.028Z,94554.97
2022-11-21T12:31:20.857Z,94556.53
2022-11-21T12:32:47.099Z,94544.09
2022-11-21T12:34:04.992Z,94545.66
2022-11-21T12:35:22.716Z,94537.84
2022-11-21T12:36:34.027Z,94533.19
2022-11-21T12:37:47.177Z,94538.19
2022-11-21T12:39:10.409Z,94530.81
2022-11-21T12:40:29.291Z,94533.88
2022-11-21T12:41:55.183Z,94532.66
2022-11-21T12:43:07.330Z,94541.91
2022-11-21T12:44:21.563Z,94535.31
2022-11-21T12:45:28.879Z,94528.66
2022-11-21T12:46:42.341Z,94531.72
2022-11-21T12:48:34.136Z,94525.13
2022-11-21T12:50:06.541Z,94523.59
2022-11-21T12:51:41.318Z,94516.19